Ana Sayfa
METAR-TAF:

METAR-TAF

Havaalanları :

Quincy Regional Airport (Baldwin Field)

Quincy, Illinois, Amerika Birleşik Devletleri

Enlem: 39-56-33N, Boylam: 091-11-40W, yükseklik: 234 m

Güncel hava durumu gözlemi

Rapor saat 16:54 UTC de 13 dakika önce yapıldı.
Rüzgar güney/güneybatıdan 7 kt
Sıcaklık 26°C
Nem 61%
Basınç 1012 hPa
Görüş mesafesi: 16.1 km
3800 ft yükseklikte az bulutlu

METAR: KUIN 181654Z AUTO 21007KT 10SM FEW038 26/18 A2987 RMK AO2 SLP110 T02610178 $

Saat: 12:07 (17:07 UTC)

Tahmin

Rapor saat 11:20 UTC de 5 saat ve 47 dakika önce yapıldı.
Ayın 18'si saat 12 UTC'den ayın 19'si saat 12 UTC'ye kadar geçerli Tahmin
Rüzgar değişken yönden 4 kt
Görüş mesafesi: 10 km
5000 ft yükseklikte az bulutlu
Ayın 19'si saat 0200 UTC'den
Rüzgar değişken yönden 4 kt
Görüş mesafesi: 10 km
12000 ft yükseklikte parçalı bulutlu

TAF: KUIN 181120Z 1812/1912 VRB04KT P6SM FEW050 FM190200 VRB04KT P6SM SCT120

4.000'den fazla havaalanı için hava durumu gözlemleri ve tahminleri (METAR ve TAF raporları).

Kullanılabilir istasyonlar harita üzerinde sarı ve kırmızı noktalarla gösterilir.

İstasyonun adını görmek için fareyi noktanın üzerinde gezdirin.

Sonrasında hava gözlem ve tahminlerini görmek için tıklayın.

Haritayı değiştirmek için: yaklaştırmak için siyah artı işaretli yeşil düğmeye ve uzaklaştırmak için de eksi işaretli düğmeye hızla tıklayın; bitişik haritalar için yeşil okları kullanın.


METAR-TAF: